La Grange Highlands, Illinois
Current Conditions -  °F | °C
As of 4:53 AM on Friday 31 Oct 2014 (Local Time) from KMDW Reporting Station
Light Rain Light Rain  
Wind Chill: 35°   Ceiling: 5500
Heat Index: 44°   Visibility: 10mi
Dew Point: 35°   Wind: 22mph
Humidity: 71%   Direction: 330°NNW
Pressure: 30.03"   Gusts: 30mph
Location:  41.7814°N, 87.8717°W
Report Text: KMDW 310953Z 33019G26KT 10SM -RA FEW026 FEW042 OVC055 07/02 A3003 RMK AO2 PK WND 33026/0952 SLP173 P0000 T00670017
Loading
Personal Weather Stations






























Interactive Weather Map
Tropical Storm Tracking
New forecast layout! Learn more

10-Day Weather Forecast

Advertisements
Track Severe Weather on mobile